createdAt,value
2018-12-22T00:00:01.469Z,1.70
2018-12-22T00:02:32.583Z,1.20
2018-12-22T00:05:01.422Z,1.10
2018-12-22T00:07:30.291Z,0.97
2018-12-22T00:09:59.111Z,1.23
2018-12-22T00:12:27.985Z,1.10
2018-12-22T00:14:57.146Z,1.27
2018-12-22T00:17:26.190Z,2.10
2018-12-22T00:19:54.993Z,1.63
2018-12-22T00:22:23.820Z,0.83
2018-12-22T00:24:52.814Z,0.83
2018-12-22T00:27:21.634Z,1.13
2018-12-22T00:29:50.446Z,0.80
2018-12-22T00:32:19.383Z,0.90
2018-12-22T00:34:51.794Z,0.63
2018-12-22T00:37:20.694Z,0.60
2018-12-22T00:39:49.511Z,0.57
2018-12-22T00:42:18.491Z,0.90
2018-12-22T00:44:47.311Z,0.50
2018-12-22T00:47:16.125Z,0.60
2018-12-22T00:49:44.939Z,0.88
2018-12-22T00:52:13.795Z,0.53
2018-12-22T00:54:42.627Z,0.47
2018-12-22T00:57:11.444Z,0.40
2018-12-22T00:59:40.263Z,0.60
2018-12-22T01:02:09.092Z,0.50
2018-12-22T01:04:37.910Z,0.30
2018-12-22T01:07:06.750Z,0.40
2018-12-22T01:09:35.569Z,0.43
2018-12-22T01:12:04.556Z,0.40
2018-12-22T01:14:33.392Z,0.60
2018-12-22T01:17:02.225Z,0.60
2018-12-22T01:19:31.042Z,0.57
2018-12-22T01:21:59.954Z,0.60
2018-12-22T01:24:28.806Z,0.40
2018-12-22T01:26:57.634Z,0.50
2018-12-22T01:29:26.489Z,0.40
2018-12-22T01:31:55.410Z,0.50
2018-12-22T01:34:24.297Z,0.40
2018-12-22T01:36:53.194Z,0.50
2018-12-22T01:39:22.074Z,0.40
2018-12-22T01:41:51.066Z,0.83
2018-12-22T01:44:20.006Z,0.40
2018-12-22T01:46:49.163Z,0.40
2018-12-22T01:49:18.051Z,0.77
2018-12-22T01:51:46.946Z,1.40
2018-12-22T01:54:15.821Z,0.40
2018-12-22T01:56:44.727Z,0.50
2018-12-22T01:59:13.553Z,0.50
2018-12-22T02:01:42.403Z,0.40
2018-12-22T02:04:11.263Z,0.63
2018-12-22T02:06:40.290Z,0.50
2018-12-22T02:09:09.158Z,0.67
2018-12-22T02:11:37.987Z,0.40
2018-12-22T02:14:06.920Z,0.40
2018-12-22T02:16:35.975Z,0.40
2018-12-22T02:19:04.875Z,0.47
2018-12-22T02:21:33.731Z,0.50
2018-12-22T02:24:02.555Z,0.42
2018-12-22T02:26:31.391Z,0.47
2018-12-22T02:29:00.227Z,0.80
2018-12-22T02:31:29.059Z,1.27
2018-12-22T02:33:57.978Z,0.30
2018-12-22T02:36:26.962Z,0.37
2018-12-22T02:38:55.858Z,0.40
2018-12-22T02:41:24.682Z,0.67
2018-12-22T02:43:53.521Z,0.40
2018-12-22T02:46:22.406Z,0.40
2018-12-22T02:48:51.237Z,3.90
2018-12-22T02:51:20.474Z,0.40
2018-12-22T02:53:49.283Z,0.40
2018-12-22T02:56:18.287Z,0.40
2018-12-22T02:58:47.195Z,0.43
2018-12-22T03:01:16.048Z,0.30
2018-12-22T03:03:44.922Z,0.40
2018-12-22T03:06:13.762Z,0.40
2018-12-22T03:08:42.606Z,0.40
2018-12-22T03:11:12.546Z,0.30
2018-12-22T03:13:41.760Z,0.40
2018-12-22T03:16:10.664Z,0.40
2018-12-22T03:18:39.532Z,0.30
2018-12-22T03:21:08.374Z,0.30
2018-12-22T03:23:37.211Z,0.40
2018-12-22T03:26:06.106Z,0.30
2018-12-22T03:28:34.955Z,0.30
2018-12-22T03:31:03.776Z,0.40
2018-12-22T03:33:36.293Z,0.30
2018-12-22T03:36:05.351Z,0.33
2018-12-22T03:38:34.243Z,0.40
2018-12-22T03:41:03.151Z,0.40
2018-12-22T03:43:32.024Z,0.50
2018-12-22T03:46:00.858Z,0.90
2018-12-22T03:48:30.075Z,0.40
2018-12-22T03:50:59.049Z,0.40
2018-12-22T03:53:28.556Z,0.42
2018-12-22T03:55:57.463Z,0.40
2018-12-22T03:58:26.487Z,0.40
2018-12-22T04:00:55.374Z,0.40
2018-12-22T04:03:24.281Z,0.40
2018-12-22T04:05:54.192Z,0.40
2018-12-22T04:08:23.006Z,0.60
2018-12-22T04:10:51.837Z,0.50
2018-12-22T04:13:20.663Z,0.50
2018-12-22T04:15:49.507Z,0.70
2018-12-22T04:18:18.347Z,0.50
2018-12-22T04:20:47.179Z,0.50
2018-12-22T04:23:15.994Z,1.20
2018-12-22T04:25:45.154Z,0.70
2018-12-22T04:28:14.005Z,0.87
2018-12-22T04:30:42.842Z,0.87
2018-12-22T04:33:11.702Z,0.93
2018-12-22T04:35:41.614Z,0.77
2018-12-22T04:38:10.487Z,0.70
2018-12-22T04:40:39.326Z,0.70
2018-12-22T04:43:08.143Z,0.70
2018-12-22T04:45:37.001Z,0.67
2018-12-22T04:48:05.860Z,0.90
2018-12-22T04:50:34.787Z,0.90
2018-12-22T04:53:03.609Z,0.90
2018-12-22T04:55:32.439Z,0.90
2018-12-22T04:58:01.291Z,1.17
2018-12-22T05:00:30.191Z,0.60
2018-12-22T05:02:59.025Z,0.40
2018-12-22T05:05:27.955Z,0.50
2018-12-22T05:07:56.829Z,0.53
2018-12-22T05:10:25.651Z,0.80
2018-12-22T05:12:54.523Z,1.37
2018-12-22T05:15:23.330Z,1.55
2018-12-22T05:17:52.154Z,2.33
2018-12-22T05:20:20.970Z,1.93
2018-12-22T05:22:49.893Z,23.60
2018-12-22T05:25:18.788Z,0.50
2018-12-22T05:27:47.620Z,374.40
2018-12-22T05:30:16.471Z,234.47
2018-12-22T05:32:45.315Z,1.33
2018-12-22T05:35:14.130Z,32.40
2018-12-22T05:37:43.119Z,6.40
2018-12-22T05:40:11.946Z,1.50
2018-12-22T05:42:40.794Z,0.90
2018-12-22T05:45:09.634Z,419.97
2018-12-22T05:47:38.513Z,418.07
2018-12-22T05:50:07.695Z,356.83
2018-12-22T05:52:36.523Z,292.93
2018-12-22T05:55:06.169Z,154.30
2018-12-22T05:57:35.077Z,79.70
2018-12-22T06:00:04.799Z,12.43
2018-12-22T06:02:33.946Z,33.30
2018-12-22T06:05:02.776Z,0.80
2018-12-22T06:07:31.671Z,96.50
2018-12-22T06:10:00.564Z,47.60
2018-12-22T06:12:29.538Z,63.00
2018-12-22T06:14:58.498Z,3.98
2018-12-22T06:17:27.642Z,25.17
2018-12-22T06:19:56.823Z,10.53
2018-12-22T06:22:25.814Z,11.07
2018-12-22T06:24:54.720Z,6.50
2018-12-22T06:27:23.619Z,35.63
2018-12-22T06:29:52.508Z,15.37
2018-12-22T06:32:21.656Z,15.47
2018-12-22T06:34:50.495Z,38.60
2018-12-22T06:37:19.460Z,4.70
2018-12-22T06:39:48.371Z,12.13
2018-12-22T06:42:17.206Z,15.23
2018-12-22T06:44:46.029Z,3.50
2018-12-22T06:47:14.883Z,2.40
2018-12-22T06:49:43.748Z,1.73
2018-12-22T06:52:12.597Z,2.30
2018-12-22T06:54:41.469Z,2.13
2018-12-22T06:57:10.387Z,1.77
2018-12-22T06:59:39.239Z,1.90
2018-12-22T07:02:08.237Z,2.00
2018-12-22T07:04:37.131Z,3.27
2018-12-22T07:07:06.011Z,1.40
2018-12-22T07:09:34.831Z,2.33
2018-12-22T07:12:03.666Z,4.10
2018-12-22T07:14:32.614Z,12.03
2018-12-22T07:17:01.466Z,32.63
2018-12-22T07:19:30.991Z,3.40
2018-12-22T07:21:59.812Z,3.30
2018-12-22T07:24:28.702Z,19.13
2018-12-22T07:26:57.525Z,3.77
2018-12-22T07:29:26.376Z,47.98
2018-12-22T07:31:55.241Z,85.20
2018-12-22T07:34:24.151Z,342.77
2018-12-22T07:36:52.981Z,4.10
2018-12-22T07:39:22.185Z,78.70
2018-12-22T07:41:51.027Z,278.60
2018-12-22T07:44:19.860Z,284.07
2018-12-22T07:46:48.715Z,169.47
2018-12-22T07:49:17.594Z,284.97
2018-12-22T07:51:46.455Z,323.00
2018-12-22T07:54:15.418Z,325.98
2018-12-22T07:56:44.368Z,339.13
2018-12-22T07:59:13.234Z,304.20
2018-12-22T08:01:42.166Z,319.77
2018-12-22T08:04:11.039Z,328.50
2018-12-22T08:06:40.176Z,128.93
2018-12-22T08:09:09.118Z,232.53
2018-12-22T08:11:38.024Z,341.87
2018-12-22T08:14:06.846Z,318.07
2018-12-22T08:16:35.742Z,344.73
2018-12-22T08:19:04.698Z,310.63
2018-12-22T08:21:33.548Z,315.00
2018-12-22T08:24:02.378Z,337.40
2018-12-22T08:26:31.269Z,324.63
2018-12-22T08:29:00.140Z,337.17
2018-12-22T08:31:29.000Z,355.80
2018-12-22T08:33:57.862Z,314.93
2018-12-22T08:36:26.846Z,314.93
2018-12-22T08:38:55.700Z,325.20
2018-12-22T08:41:24.534Z,324.67
2018-12-22T08:43:53.379Z,348.47
2018-12-22T08:46:22.229Z,339.77
2018-12-22T08:48:51.067Z,315.57
2018-12-22T08:51:19.899Z,324.37
2018-12-22T08:53:48.767Z,329.37
2018-12-22T08:56:17.739Z,334.73
2018-12-22T08:58:46.639Z,341.00
2018-12-22T09:01:15.487Z,327.97
2018-12-22T09:03:44.320Z,339.07
2018-12-22T09:06:13.206Z,321.77
2018-12-22T09:08:42.121Z,333.50
2018-12-22T09:11:11.164Z,336.83
2018-12-22T09:13:40.014Z,344.50
2018-12-22T09:16:08.892Z,340.47
2018-12-22T09:18:37.715Z,340.43
2018-12-22T09:21:06.602Z,327.97
2018-12-22T09:23:35.489Z,345.07
2018-12-22T09:26:04.343Z,332.90
2018-12-22T09:28:33.319Z,339.63
2018-12-22T09:31:02.186Z,362.73
2018-12-22T09:33:32.685Z,352.63
2018-12-22T09:36:01.547Z,352.23
2018-12-22T09:38:30.407Z,289.77
2018-12-22T09:40:59.300Z,3.40
2018-12-22T09:43:28.411Z,12.27
2018-12-22T09:45:57.243Z,7.87
2018-12-22T09:48:26.072Z,38.37
2018-12-22T09:50:55.070Z,15.33
2018-12-22T09:53:23.929Z,24.50
2018-12-22T09:55:52.735Z,12.60
2018-12-22T09:58:21.639Z,12.40
2018-12-22T10:00:51.347Z,3.30
2018-12-22T10:03:20.222Z,131.33
2018-12-22T10:05:49.110Z,11.37
2018-12-22T10:08:17.998Z,14.37
2018-12-22T10:10:46.858Z,5.67
2018-12-22T10:13:15.712Z,5.90
2018-12-22T10:15:44.583Z,300.53
2018-12-22T10:18:13.602Z,94.87
2018-12-22T10:20:42.522Z,172.70
2018-12-22T10:23:11.473Z,308.27
2018-12-22T10:25:40.348Z,51.90
2018-12-22T10:28:09.363Z,278.07
2018-12-22T10:30:38.247Z,280.80
2018-12-22T10:33:10.106Z,289.80
2018-12-22T10:35:39.107Z,149.87
2018-12-22T10:38:08.075Z,183.23
2018-12-22T10:40:36.983Z,180.17
2018-12-22T10:43:05.862Z,210.70
2018-12-22T10:45:34.707Z,260.43
2018-12-22T10:48:03.611Z,99.47
2018-12-22T10:50:32.539Z,59.10
2018-12-22T10:53:02.367Z,55.80
2018-12-22T10:55:31.246Z,71.67
2018-12-22T10:58:00.130Z,223.70
2018-12-22T11:00:29.012Z,170.33
2018-12-22T11:02:57.922Z,336.90
2018-12-22T11:05:26.734Z,8.70
2018-12-22T11:07:55.681Z,9.73
2018-12-22T11:10:26.170Z,39.80
2018-12-22T11:12:57.675Z,90.50
2018-12-22T11:15:26.525Z,121.13
2018-12-22T11:17:55.364Z,94.00
2018-12-22T11:20:24.453Z,137.57
2018-12-22T11:22:53.337Z,86.10
2018-12-22T11:25:24.989Z,93.87
2018-12-22T11:27:54.942Z,112.13
2018-12-22T11:30:27.169Z,198.50
2018-12-22T11:32:56.103Z,356.20
2018-12-22T11:35:24.990Z,290.67
2018-12-22T11:37:53.915Z,354.33
2018-12-22T11:40:22.772Z,338.23
2018-12-22T11:42:51.832Z,342.80
2018-12-22T11:45:20.758Z,329.27
2018-12-22T11:48:00.875Z,348.97
2018-12-22T11:50:29.783Z,347.27
2018-12-22T11:52:58.690Z,337.80
2018-12-22T11:55:27.538Z,322.20
2018-12-22T11:57:56.430Z,312.57
2018-12-22T12:00:25.318Z,317.23
2018-12-22T12:02:54.242Z,313.17
2018-12-22T12:05:23.180Z,316.97
2018-12-22T12:07:52.090Z,315.93
2018-12-22T12:10:20.946Z,312.77
2018-12-22T12:12:49.793Z,324.37
2018-12-22T12:15:21.763Z,319.33
2018-12-22T12:18:06.097Z,314.90
2018-12-22T12:20:34.964Z,307.37
2018-12-22T12:23:03.870Z,312.10
2018-12-22T12:25:32.762Z,302.63
2018-12-22T12:28:01.616Z,317.00
2018-12-22T12:30:30.501Z,76.03
2018-12-22T12:32:59.343Z,21.30
2018-12-22T12:35:28.227Z,24.27
2018-12-22T12:37:57.075Z,102.70
2018-12-22T12:40:26.003Z,297.37
2018-12-22T12:42:54.875Z,261.00
2018-12-22T12:45:23.699Z,318.90
2018-12-22T12:47:52.535Z,270.13
2018-12-22T12:50:22.510Z,244.53
2018-12-22T12:52:51.375Z,185.20
2018-12-22T12:55:20.247Z,230.80
2018-12-22T12:57:49.081Z,186.83
2018-12-22T13:00:18.574Z,289.73
2018-12-22T13:02:47.571Z,241.23
2018-12-22T13:05:16.430Z,306.30
2018-12-22T13:07:45.295Z,313.47
2018-12-22T13:10:14.127Z,302.37
2018-12-22T13:12:53.471Z,327.37
2018-12-22T13:15:23.616Z,324.42
2018-12-22T13:17:52.542Z,303.53
2018-12-22T13:20:21.414Z,307.20
2018-12-22T13:22:50.255Z,339.43
2018-12-22T13:25:19.179Z,319.80
2018-12-22T13:27:48.047Z,285.67
2018-12-22T13:30:16.940Z,302.03
2018-12-22T13:32:45.843Z,313.67
2018-12-22T13:35:14.815Z,311.40
2018-12-22T13:37:43.862Z,309.97
2018-12-22T13:40:12.975Z,265.37
2018-12-22T13:42:41.905Z,302.87
2018-12-22T13:45:10.944Z,308.97
2018-12-22T13:47:40.082Z,347.27
2018-12-22T13:50:09.109Z,330.60
2018-12-22T13:52:38.029Z,313.63
2018-12-22T13:55:07.795Z,314.93
2018-12-22T13:57:36.972Z,332.53
2018-12-22T14:00:09.967Z,334.07
2018-12-22T14:02:39.991Z,334.53
2018-12-22T14:05:11.447Z,336.47
2018-12-22T14:07:40.321Z,348.63
2018-12-22T14:10:10.472Z,327.97
2018-12-22T14:12:39.392Z,294.60
2018-12-22T14:15:12.027Z,338.75
2018-12-22T14:18:01.708Z,333.90
2018-12-22T14:20:32.003Z,299.70
2018-12-22T14:23:00.868Z,312.00
2018-12-22T14:25:30.914Z,290.17
2018-12-22T14:27:59.779Z,309.90
2018-12-22T14:30:28.622Z,317.73
2018-12-22T14:32:59.434Z,315.07
2018-12-22T14:35:39.978Z,283.05
2018-12-22T14:38:08.849Z,335.07
2018-12-22T14:40:38.766Z,310.87
2018-12-22T14:43:07.635Z,151.83
2018-12-22T14:45:36.514Z,281.02
2018-12-22T14:48:05.466Z,317.10
2018-12-22T14:50:34.342Z,301.53
2018-12-22T14:53:03.277Z,317.20
2018-12-22T14:55:33.106Z,320.27
2018-12-22T14:58:36.150Z,328.53
2018-12-22T15:01:05.119Z,331.07
2018-12-22T15:03:34.237Z,341.67
2018-12-22T15:06:03.189Z,339.10
2018-12-22T15:08:32.127Z,337.97
2018-12-22T15:11:01.033Z,344.47
2018-12-22T15:13:29.889Z,321.20
2018-12-22T15:15:58.736Z,320.20
2018-12-22T15:18:27.607Z,337.03
2018-12-22T15:20:57.739Z,314.75
2018-12-22T15:23:26.592Z,316.83
2018-12-22T15:25:55.487Z,307.53
2018-12-22T15:28:24.536Z,308.90
2018-12-22T15:30:53.355Z,285.47
2018-12-22T15:33:22.962Z,274.13
2018-12-22T15:35:51.832Z,269.67
2018-12-22T15:38:20.666Z,276.40
2018-12-22T15:40:49.621Z,270.93
2018-12-22T15:43:19.660Z,281.17
2018-12-22T15:45:48.618Z,282.87
2018-12-22T15:48:17.491Z,314.00
2018-12-22T15:50:47.772Z,290.73
2018-12-22T15:53:16.773Z,282.10
2018-12-22T15:55:45.627Z,282.20
2018-12-22T15:58:14.579Z,300.03
2018-12-22T16:00:43.440Z,287.02
2018-12-22T16:03:12.327Z,304.80
2018-12-22T16:05:41.243Z,312.57
2018-12-22T16:08:10.167Z,315.53
2018-12-22T16:10:39.201Z,305.80
2018-12-22T16:13:08.067Z,292.60
2018-12-22T16:15:36.918Z,306.63
2018-12-22T16:18:05.867Z,305.93
2018-12-22T16:20:34.793Z,307.27
2018-12-22T16:23:04.571Z,287.37
2018-12-22T16:25:33.576Z,276.67
2018-12-22T16:28:09.728Z,306.00
2018-12-22T16:30:43.056Z,299.97
2018-12-22T16:33:12.140Z,311.57
2018-12-22T16:35:40.996Z,315.27
2018-12-22T16:38:09.948Z,317.27
2018-12-22T16:40:38.912Z,309.17
2018-12-22T16:43:10.946Z,317.20
2018-12-22T16:45:43.140Z,321.13
2018-12-22T16:48:12.056Z,318.77
2018-12-22T16:50:42.535Z,305.47
2018-12-22T16:53:11.549Z,312.07
2018-12-22T16:55:40.622Z,307.97
2018-12-22T16:58:44.811Z,305.37
2018-12-22T17:01:37.459Z,318.43
2018-12-22T17:04:06.407Z,312.47
2018-12-22T17:06:35.979Z,304.13
2018-12-22T17:09:06.933Z,303.03
2018-12-22T17:11:35.813Z,311.43
2018-12-22T17:14:04.831Z,310.67
2018-12-22T17:16:33.714Z,307.40
2018-12-22T17:19:02.699Z,310.63
2018-12-22T17:21:49.823Z,328.50
2018-12-22T17:24:31.202Z,350.90
2018-12-22T17:27:00.052Z,350.23
2018-12-22T17:29:28.983Z,339.40
2018-12-22T17:31:57.935Z,321.67
2018-12-22T17:34:26.895Z,331.37
2018-12-22T17:36:55.839Z,318.63
2018-12-22T17:39:24.735Z,308.10
2018-12-22T17:41:53.721Z,315.07
2018-12-22T17:44:22.542Z,342.33
2018-12-22T17:46:51.421Z,347.77
2018-12-22T17:49:20.507Z,344.50
2018-12-22T17:51:49.362Z,385.00
2018-12-22T17:54:19.096Z,393.93
2018-12-22T17:56:48.103Z,386.93
2018-12-22T17:59:17.035Z,379.47
2018-12-22T18:01:45.990Z,365.63
2018-12-22T18:04:14.882Z,366.60
2018-12-22T18:06:43.759Z,361.47
2018-12-22T18:09:12.650Z,369.90
2018-12-22T18:11:41.502Z,353.67
2018-12-22T18:14:10.406Z,2.60
2018-12-22T18:16:39.316Z,2.70
2018-12-22T18:19:08.342Z,2.50
2018-12-22T18:21:37.840Z,1.93
2018-12-22T18:24:06.802Z,2.40
2018-12-22T18:26:35.718Z,2.80
2018-12-22T18:29:04.554Z,1.83
2018-12-22T18:31:33.470Z,2.83
2018-12-22T18:34:02.383Z,2.40
2018-12-22T18:36:31.359Z,4.17
2018-12-22T18:39:00.255Z,4.23
2018-12-22T18:41:29.247Z,2.10
2018-12-22T18:43:58.147Z,1.80
2018-12-22T18:46:27.011Z,3.57
2018-12-22T18:48:55.887Z,2.73
2018-12-22T18:51:24.863Z,2.67
2018-12-22T18:53:53.768Z,2.87
2018-12-22T18:56:22.811Z,2.60
2018-12-22T18:58:52.191Z,3.83
2018-12-22T19:01:21.153Z,2.63
2018-12-22T19:03:50.095Z,7.70
2018-12-22T19:06:18.916Z,23.43
2018-12-22T19:08:48.767Z,17.53
2018-12-22T19:11:19.927Z,4.23
2018-12-22T19:13:48.854Z,4.47
2018-12-22T19:16:17.811Z,4.37
2018-12-22T19:18:46.714Z,5.33
2018-12-22T19:21:15.551Z,3.30
2018-12-22T19:23:44.706Z,2.30
2018-12-22T19:26:13.555Z,3.57
2018-12-22T19:28:42.444Z,4.17
2018-12-22T19:31:12.370Z,2.90
2018-12-22T19:33:41.458Z,8.23
2018-12-22T19:36:10.326Z,3.33
2018-12-22T19:38:39.166Z,34.77
2018-12-22T19:42:11.322Z,269.63
2018-12-22T19:44:40.324Z,313.80
2018-12-22T19:47:09.157Z,349.60
2018-12-22T19:49:38.001Z,256.50
2018-12-22T19:52:06.991Z,241.30
2018-12-22T19:54:35.883Z,258.47
2018-12-22T19:57:04.803Z,320.30
2018-12-22T19:59:33.656Z,345.93
2018-12-22T20:02:02.571Z,350.57
2018-12-22T20:04:31.443Z,400.93
2018-12-22T20:07:00.275Z,1.10
2018-12-22T20:09:29.122Z,1.00
2018-12-22T20:11:57.954Z,1.87
2018-12-22T20:14:26.790Z,2.57
2018-12-22T20:16:55.676Z,2.80
2018-12-22T20:19:24.608Z,1.37
2018-12-22T20:21:53.432Z,1.50
2018-12-22T20:24:28.553Z,1.20
2018-12-22T20:26:57.572Z,1.53
2018-12-22T20:29:26.393Z,2.10
2018-12-22T20:31:55.283Z,1.50
2018-12-22T20:34:24.182Z,1.90
2018-12-22T20:36:53.007Z,2.47
2018-12-22T20:39:21.961Z,2.47
2018-12-22T20:41:51.105Z,2.83
2018-12-22T20:44:19.964Z,2.67
2018-12-22T20:46:48.826Z,2.47
2018-12-22T20:49:17.764Z,2.07
2018-12-22T20:51:46.623Z,2.77
2018-12-22T20:54:15.603Z,1.90
2018-12-22T20:56:44.474Z,2.20
2018-12-22T20:59:13.368Z,2.10
2018-12-22T21:01:42.466Z,1.50
2018-12-22T21:04:19.658Z,3.23
2018-12-22T21:06:42.265Z,3.50
2018-12-22T21:09:11.101Z,4.57
2018-12-22T21:11:40.184Z,3.80
2018-12-22T21:14:09.337Z,2.70
2018-12-22T21:16:38.482Z,2.70
2018-12-22T21:19:07.354Z,3.40
2018-12-22T21:21:36.206Z,3.30
2018-12-22T21:24:05.168Z,2.30
2018-12-22T21:26:34.014Z,1.90
2018-12-22T21:29:02.854Z,3.40
2018-12-22T21:31:31.706Z,3.67
2018-12-22T21:34:00.616Z,1.90
2018-12-22T21:36:29.502Z,1.80
2018-12-22T21:38:58.518Z,2.83
2018-12-22T21:41:27.583Z,2.90
2018-12-22T21:43:56.493Z,3.27
2018-12-22T21:46:25.367Z,3.20
2018-12-22T21:48:54.253Z,1.80
2018-12-22T21:51:23.095Z,2.20
2018-12-22T21:53:52.029Z,2.03
2018-12-22T21:56:20.951Z,2.13
2018-12-22T21:58:49.831Z,4.80
2018-12-22T22:01:18.673Z,1.40
2018-12-22T22:03:47.543Z,2.33
2018-12-22T22:06:16.419Z,2.23
2018-12-22T22:08:45.283Z,9.23
2018-12-22T22:11:14.259Z,4.10
2018-12-22T22:13:43.187Z,2.23
2018-12-22T22:16:12.027Z,1.93
2018-12-22T22:18:40.871Z,2.07
2018-12-22T22:21:09.745Z,2.90
2018-12-22T22:23:38.715Z,1.70
2018-12-22T22:26:07.627Z,2.27
2018-12-22T22:28:36.584Z,1.77
2018-12-22T22:31:05.463Z,1.63
2018-12-22T22:33:37.408Z,1.20
2018-12-22T22:36:06.409Z,1.40
2018-12-22T22:38:35.296Z,1.23
2018-12-22T22:41:04.143Z,0.90
2018-12-22T22:43:33.736Z,1.00
2018-12-22T22:46:02.710Z,1.80
2018-12-22T22:48:31.551Z,0.97
2018-12-22T22:51:00.414Z,0.77
2018-12-22T22:53:29.231Z,0.90
2018-12-22T22:55:58.090Z,1.10
2018-12-22T22:58:27.006Z,0.90
2018-12-22T23:00:55.935Z,1.40
2018-12-22T23:03:24.870Z,1.37
2018-12-22T23:05:53.772Z,1.37
2018-12-22T23:08:22.646Z,1.47
2018-12-22T23:10:51.693Z,1.30
2018-12-22T23:13:20.597Z,1.50
2018-12-22T23:15:49.431Z,0.95
2018-12-22T23:18:19.343Z,1.10
2018-12-22T23:20:48.159Z,1.10
2018-12-22T23:23:17.012Z,0.93
2018-12-22T23:25:45.907Z,0.77
2018-12-22T23:28:14.815Z,0.60
2018-12-22T23:30:43.646Z,0.60
2018-12-22T23:33:12.830Z,0.77
2018-12-22T23:35:41.678Z,0.70
2018-12-22T23:38:10.582Z,0.80
2018-12-22T23:40:39.512Z,0.70
2018-12-22T23:43:08.396Z,0.90
2018-12-22T23:45:37.241Z,0.73
2018-12-22T23:48:06.103Z,0.80
2018-12-22T23:50:34.931Z,1.17
2018-12-22T23:53:03.811Z,1.03
2018-12-22T23:55:32.667Z,1.03
2018-12-22T23:58:01.579Z,1.00
